Wooler, United Kingdom
Current Conditions -  °F | °C
As of 12:50 PM on Sunday 23 Nov 2014 (Local Time) from EGQM Reporting Station
Few Clouds Few Clouds  
Wind Chill:   Ceiling: Unl
Heat Index:   Visibility: 6mi
Dew Point:   Wind: 13mph
Humidity: 71%   Direction: 280°W
Pressure: 29.97"   Gusts: NA
Location:  55.55°N, 2.01°W
Report Text: EGQM 231250Z AUTO 28011KT 9999 FEW170/// 08/03 Q1015
Loading
Personal Weather Stations






























Interactive Weather Map New forecast layout! Learn more

10-Day Weather Forecast

Advertisements
Track Severe Weather on mobile